createdAt,value
2022-11-13T11:55:27.932Z,3.95
2022-11-13T11:58:22.849Z,3.38
2022-11-13T12:01:37.215Z,3.35
2022-11-13T12:05:03.750Z,3.20
2022-11-13T12:07:52.422Z,3.40
2022-11-13T12:10:55.427Z,3.45
2022-11-13T12:13:50.438Z,3.45
2022-11-13T12:17:00.219Z,3.03
2022-11-13T12:19:54.804Z,3.53
2022-11-13T12:22:49.941Z,3.38
2022-11-13T12:25:44.646Z,3.80
2022-11-13T12:28:41.262Z,3.17
2022-11-13T12:31:51.411Z,3.40
2022-11-13T12:34:49.604Z,3.30
2022-11-13T12:38:10.609Z,2.85
2022-11-13T12:41:14.317Z,2.58
2022-11-13T12:44:07.911Z,2.25
2022-11-13T12:46:54.651Z,3.15
2022-11-13T12:49:40.417Z,2.63
2022-11-13T12:52:25.577Z,2.75
2022-11-13T12:55:27.460Z,2.45
2022-11-13T12:58:26.622Z,2.47
2022-11-13T13:01:12.446Z,2.47
2022-11-13T13:04:29.544Z,2.30
2022-11-13T13:07:45.317Z,2.55
2022-11-13T13:10:59.969Z,2.72
2022-11-13T13:14:01.534Z,2.50
2022-11-13T13:16:47.050Z,2.20
2022-11-13T13:19:33.834Z,2.55
2022-11-13T13:22:29.752Z,2.28
2022-11-13T13:25:33.666Z,1.83
2022-11-13T13:28:23.740Z,2.10
2022-11-13T13:31:34.595Z,2.08
2022-11-13T13:35:00.328Z,2.22
2022-11-13T13:38:10.899Z,2.40
2022-11-13T13:41:17.350Z,2.38
2022-11-13T13:44:44.420Z,2.67
2022-11-13T13:47:35.339Z,2.38
2022-11-13T13:50:24.183Z,2.70
2022-11-13T13:53:14.415Z,3.05
2022-11-13T13:56:03.339Z,2.92
2022-11-13T13:58:49.177Z,3.15
2022-11-13T14:01:35.363Z,3.60
2022-11-13T14:04:23.387Z,3.70
2022-11-13T14:07:26.839Z,3.60
2022-11-13T14:10:13.880Z,4.63
2022-11-13T14:12:59.044Z,4.35
2022-11-13T14:15:44.565Z,4.90
2022-11-13T14:18:30.409Z,4.40
2022-11-13T14:21:21.010Z,5.10
2022-11-13T14:24:14.042Z,5.22
2022-11-13T14:27:01.790Z,5.95
2022-11-13T14:29:50.261Z,5.15
2022-11-13T14:32:45.739Z,5.75
2022-11-13T14:35:32.422Z,5.40
2022-11-13T14:38:21.662Z,5.13
2022-11-13T14:41:07.577Z,6.00
2022-11-13T14:43:53.296Z,6.35
2022-11-13T14:46:45.907Z,6.90
2022-11-13T14:49:37.206Z,6.60
2022-11-13T14:52:27.758Z,7.20
2022-11-13T14:55:28.578Z,8.57
2022-11-13T14:58:14.774Z,8.32
2022-11-13T15:01:19.184Z,9.43
2022-11-13T15:04:05.291Z,8.90
2022-11-13T15:06:55.428Z,9.25
2022-11-13T15:09:40.763Z,9.57
2022-11-13T15:12:26.351Z,10.15
2022-11-13T15:15:18.918Z,11.63
2022-11-13T15:18:05.348Z,11.50
2022-11-13T15:20:50.518Z,10.90
2022-11-13T15:23:36.011Z,11.30
2022-11-13T15:26:21.627Z,11.65
2022-11-13T15:29:07.674Z,13.68
2022-11-13T15:31:52.975Z,13.45
2022-11-13T15:34:38.292Z,12.15
2022-11-13T15:37:23.684Z,12.77
2022-11-13T15:40:09.449Z,12.05
2022-11-13T15:42:55.304Z,12.52
2022-11-13T15:45:44.152Z,13.23
2022-11-13T15:48:30.387Z,13.38
2022-11-13T15:51:33.450Z,12.68
2022-11-13T15:54:26.451Z,14.50
2022-11-13T15:57:22.000Z,14.68
2022-11-13T16:00:14.788Z,17.05
2022-11-13T16:03:00.286Z,15.27
2022-11-13T16:05:45.594Z,15.88
2022-11-13T16:08:30.971Z,16.20
2022-11-13T16:11:18.264Z,14.88
2022-11-13T16:14:03.460Z,17.08
2022-11-13T16:16:50.523Z,16.55
2022-11-13T16:19:37.289Z,14.88
2022-11-13T16:22:27.047Z,16.15
2022-11-13T16:25:19.568Z,15.75
2022-11-13T16:28:06.440Z,15.15
2022-11-13T16:30:51.855Z,16.02
2022-11-13T16:33:37.351Z,14.65
2022-11-13T16:36:22.777Z,14.43
2022-11-13T16:39:16.878Z,14.93
2022-11-13T16:42:02.324Z,15.70
2022-11-13T16:44:47.388Z,15.27
2022-11-13T16:47:32.770Z,16.13
2022-11-13T16:50:22.777Z,15.30
2022-11-13T16:53:10.235Z,16.50
2022-11-13T16:55:55.704Z,16.45
2022-11-13T16:58:41.672Z,19.90
2022-11-13T17:01:27.085Z,17.10
2022-11-13T17:04:15.476Z,17.48
2022-11-13T17:07:00.907Z,16.70
2022-11-13T17:09:46.482Z,16.52
2022-11-13T17:12:31.995Z,16.85
2022-11-13T17:15:17.821Z,17.48
2022-11-13T17:18:02.995Z,16.77
2022-11-13T17:20:52.499Z,17.08
2022-11-13T17:23:38.207Z,15.80
2022-11-13T17:26:25.295Z,17.50
2022-11-13T17:29:10.627Z,15.93
2022-11-13T17:31:56.196Z,16.42
2022-11-13T17:34:43.313Z,17.35
2022-11-13T17:37:28.715Z,16.23
2022-11-13T17:40:14.270Z,20.27
2022-11-13T17:42:59.506Z,19.88
2022-11-13T17:45:51.989Z,21.15
2022-11-13T17:48:37.711Z,21.25
2022-11-13T17:51:22.818Z,19.60
2022-11-13T17:54:08.170Z,21.70
2022-11-13T17:56:53.707Z,21.83
2022-11-13T17:59:39.084Z,19.35
2022-11-13T18:02:24.745Z,22.02
2022-11-13T18:05:10.502Z,20.73
2022-11-13T18:07:55.721Z,21.42
2022-11-13T18:10:42.425Z,22.77
2022-11-13T18:13:28.175Z,22.58
2022-11-13T18:16:22.238Z,19.63
2022-11-13T18:19:09.224Z,25.30
2022-11-13T18:21:54.892Z,23.55
2022-11-13T18:24:40.377Z,22.00
2022-11-13T18:27:25.698Z,22.67
2022-11-13T18:30:11.458Z,25.02
2022-11-13T18:32:56.634Z,23.95
2022-11-13T18:35:42.177Z,24.13
2022-11-13T18:38:28.624Z,26.00
2022-11-13T18:41:19.010Z,25.38
2022-11-13T18:44:04.305Z,25.38
2022-11-13T18:46:49.679Z,27.98
2022-11-13T18:49:35.229Z,23.13
2022-11-13T18:52:20.799Z,24.33
2022-11-13T18:55:06.663Z,23.73
2022-11-13T18:57:52.178Z,25.67
2022-11-13T19:00:37.573Z,25.30
2022-11-13T19:03:24.472Z,21.90
2022-11-13T19:06:12.661Z,23.10
2022-11-13T19:09:00.158Z,23.25
2022-11-13T19:11:45.486Z,24.40
2022-11-13T19:14:31.029Z,22.58
2022-11-13T19:17:16.391Z,22.85
2022-11-13T19:20:01.888Z,22.63
2022-11-13T19:22:47.242Z,22.83
2022-11-13T19:25:32.534Z,24.65
2022-11-13T19:28:17.981Z,24.05
2022-11-13T19:31:11.536Z,23.88
2022-11-13T19:34:01.908Z,24.05
2022-11-13T19:36:49.357Z,23.40
2022-11-13T19:39:35.251Z,22.67
2022-11-13T19:42:20.659Z,25.15
2022-11-13T19:45:06.549Z,22.35
2022-11-13T19:47:52.128Z,22.70
2022-11-13T19:50:37.479Z,24.20
2022-11-13T19:53:22.947Z,22.23
2022-11-13T19:56:08.757Z,23.55
2022-11-13T19:58:54.083Z,22.20
2022-11-13T20:01:39.895Z,21.70
2022-11-13T20:04:25.242Z,22.33
2022-11-13T20:07:11.425Z,21.63
2022-11-13T20:09:56.969Z,21.95
2022-11-13T20:12:42.378Z,21.45
2022-11-13T20:15:27.955Z,22.83
2022-11-13T20:18:14.355Z,21.98
2022-11-13T20:21:00.286Z,23.77
2022-11-13T20:23:45.848Z,23.35
2022-11-13T20:26:31.261Z,22.10
2022-11-13T20:29:16.742Z,22.70
2022-11-13T20:32:02.043Z,22.90
2022-11-13T20:34:47.581Z,22.23
2022-11-13T20:37:34.022Z,19.08
2022-11-13T20:40:19.430Z,19.95
2022-11-13T20:43:04.802Z,23.95
2022-11-13T20:45:50.515Z,21.95
2022-11-13T20:48:36.426Z,22.67
2022-11-13T20:51:25.116Z,22.80
2022-11-13T20:54:10.521Z,22.42
2022-11-13T20:56:55.935Z,22.33
2022-11-13T20:59:41.240Z,20.95
2022-11-13T21:02:26.613Z,21.95
2022-11-13T21:05:12.149Z,23.17
2022-11-13T21:07:57.472Z,20.45
2022-11-13T21:10:43.116Z,21.90
2022-11-13T21:13:28.860Z,23.00
2022-11-13T21:16:14.050Z,22.88
2022-11-13T21:19:00.099Z,24.70
2022-11-13T21:21:45.118Z,25.65
2022-11-13T21:24:30.464Z,23.38
2022-11-13T21:27:15.868Z,23.40
2022-11-13T21:30:01.371Z,23.55
2022-11-13T21:32:46.908Z,24.13
2022-11-13T21:35:32.300Z,23.02
2022-11-13T21:38:17.828Z,23.95
2022-11-13T21:41:24.896Z,20.60
2022-11-13T21:44:10.828Z,20.65
2022-11-13T21:46:56.255Z,19.88
2022-11-13T21:49:41.961Z,22.85
2022-11-13T21:52:27.192Z,21.67
2022-11-13T21:55:12.711Z,22.75
2022-11-13T21:57:58.154Z,22.45
2022-11-13T22:00:44.331Z,20.50
2022-11-13T22:03:29.788Z,22.98
2022-11-13T22:06:22.121Z,21.88
2022-11-13T22:09:19.122Z,20.55
2022-11-13T22:12:04.681Z,22.42
2022-11-13T22:14:49.976Z,23.73
2022-11-13T22:17:35.437Z,23.35
2022-11-13T22:20:21.045Z,20.77
2022-11-13T22:23:06.189Z,23.73
2022-11-13T22:25:55.757Z,24.05
2022-11-13T22:28:44.987Z,26.52
2022-11-13T22:31:31.544Z,27.15
2022-11-13T22:34:16.899Z,26.98
2022-11-13T22:37:02.323Z,24.75
2022-11-13T22:39:47.781Z,24.25
2022-11-13T22:42:33.195Z,24.40
2022-11-13T22:45:23.758Z,23.80
2022-11-13T22:48:12.586Z,23.60
2022-11-13T22:51:06.711Z,23.75
2022-11-13T22:53:56.999Z,25.65
2022-11-13T22:56:42.200Z,23.92
2022-11-13T22:59:27.854Z,22.30
2022-11-13T23:02:13.112Z,24.92
2022-11-13T23:04:58.497Z,22.75
2022-11-13T23:07:43.924Z,24.00
2022-11-13T23:10:29.320Z,24.75
2022-11-13T23:13:14.548Z,24.33
2022-11-13T23:16:01.571Z,24.45
2022-11-13T23:18:47.410Z,22.20
2022-11-13T23:21:33.074Z,24.10
2022-11-13T23:24:18.297Z,25.20
2022-11-13T23:27:03.874Z,20.95
2022-11-13T23:29:50.395Z,23.13
2022-11-13T23:32:35.923Z,24.85
2022-11-13T23:35:21.306Z,24.63
2022-11-13T23:38:07.199Z,23.48
2022-11-13T23:40:57.575Z,23.52
2022-11-13T23:46:48.135Z,21.50
2022-11-13T23:49:33.602Z,23.20
2022-11-13T23:52:19.030Z,26.33
2022-11-13T23:55:04.615Z,23.40
2022-11-13T23:58:02.745Z,23.15
